sensor_id;sensor_type;location;lat;lon;timestamp;pressure;altitude;pressure_sealevel;temperature;humidity
79455;BME280;68900;52.134;5.420;2024-01-15T00:00:15;100478.13;;;1.95;100.00
79455;BME280;68900;52.134;5.420;2024-01-15T00:02:42;100477.59;;;1.90;100.00
79455;BME280;68900;52.134;5.420;2024-01-15T00:05:08;100483.91;;;1.89;100.00
79455;BME280;68900;52.134;5.420;2024-01-15T00:07:35;100477.81;;;1.87;100.00
79455;BME280;68900;52.134;5.420;2024-01-15T00:10:02;100475.47;;;1.83;100.00
79455;BME280;68900;52.134;5.420;2024-01-15T00:12:44;100474.94;;;1.77;100.00
79455;BME280;68900;52.134;5.420;2024-01-15T00:15:11;100473.44;;;1.73;100.00
79455;BME280;68900;52.134;5.420;2024-01-15T00:17:38;100466.66;;;1.69;100.00
79455;BME280;68900;52.134;5.420;2024-01-15T00:20:07;100468.34;;;1.70;100.00
79455;BME280;68900;52.134;5.420;2024-01-15T00:22:34;100470.25;;;1.68;100.00
79455;BME280;68900;52.134;5.420;2024-01-15T00:25:03;100462.59;;;1.64;100.00
79455;BME280;68900;52.134;5.420;2024-01-15T00:27:31;100453.03;;;1.61;100.00
79455;BME280;68900;52.134;5.420;2024-01-15T00:30:01;100453.13;;;1.60;100.00
79455;BME280;68900;52.134;5.420;2024-01-15T00:32:31;100451.41;;;1.59;100.00
79455;BME280;68900;52.134;5.420;2024-01-15T00:34:57;100447.19;;;1.56;100.00
79455;BME280;68900;52.134;5.420;2024-01-15T00:37:24;100448.13;;;1.55;100.00
79455;BME280;68900;52.134;5.420;2024-01-15T00:39:51;100447.50;;;1.52;100.00
79455;BME280;68900;52.134;5.420;2024-01-15T00:42:17;100444.84;;;1.52;100.00
79455;BME280;68900;52.134;5.420;2024-01-15T00:44:44;100439.69;;;1.49;100.00
79455;BME280;68900;52.134;5.420;2024-01-15T00:47:11;100438.66;;;1.51;100.00
79455;BME280;68900;52.134;5.420;2024-01-15T00:49:37;100424.84;;;1.46;100.00
79455;BME280;68900;52.134;5.420;2024-01-15T00:52:07;100425.78;;;1.45;100.00
79455;BME280;68900;52.134;5.420;2024-01-15T00:54:33;100424.94;;;1.45;100.00
79455;BME280;68900;52.134;5.420;2024-01-15T00:57:00;100418.97;;;1.41;100.00
79455;BME280;68900;52.134;5.420;2024-01-15T00:59:30;100426.84;;;1.43;100.00
79455;BME280;68900;52.134;5.420;2024-01-15T01:01:57;100431.19;;;1.44;100.00
79455;BME280;68900;52.134;5.420;2024-01-15T01:04:25;100417.25;;;1.40;100.00
79455;BME280;68900;52.134;5.420;2024-01-15T01:06:52;100420.78;;;1.41;100.00
79455;BME280;68900;52.134;5.420;2024-01-15T02:52:46;100399.22;;;1.58;100.00
79455;BME280;68900;52.134;5.420;2024-01-15T02:55:12;100400.91;;;1.59;100.00
79455;BME280;68900;52.134;5.420;2024-01-15T02:57:39;100408.78;;;1.60;100.00
79455;BME280;68900;52.134;5.420;2024-01-15T03:00:06;100400.91;;;1.59;100.00
79455;BME280;68900;52.134;5.420;2024-01-15T03:02:38;100409.66;;;1.61;100.00
79455;BME280;68900;52.134;5.420;2024-01-15T03:05:10;100392.75;;;1.62;100.00
79455;BME280;68900;52.134;5.420;2024-01-15T03:07:36;100402.53;;;1.61;100.00
79455;BME280;68900;52.134;5.420;2024-01-15T03:10:04;100397.22;;;1.61;100.00
79455;BME280;68900;52.134;5.420;2024-01-15T03:12:33;100384.78;;;1.62;100.00
79455;BME280;68900;52.134;5.420;2024-01-15T03:15:04;100385.59;;;1.62;100.00
79455;BME280;68900;52.134;5.420;2024-01-15T03:17:33;100392.63;;;1.63;100.00
79455;BME280;68900;52.134;5.420;2024-01-15T03:31:41;100400.50;;;1.52;100.00
79455;BME280;68900;52.134;5.420;2024-01-15T03:38:07;100407.09;;;1.47;100.00
79455;BME280;68900;52.134;5.420;2024-01-15T03:40:33;100411.75;;;1.43;100.00
79455;BME280;68900;52.134;5.420;2024-01-15T03:43:01;100420.56;;;1.44;100.00
79455;BME280;68900;52.134;5.420;2024-01-15T03:45:28;100430.47;;;1.42;100.00
79455;BME280;68900;52.134;5.420;2024-01-15T03:47:57;100418.75;;;1.44;100.00
79455;BME280;68900;52.134;5.420;2024-01-15T03:50:24;100411.44;;;1.48;100.00
79455;BME280;68900;52.134;5.420;2024-01-15T03:52:51;100394.84;;;1.44;100.00
79455;BME280;68900;52.134;5.420;2024-01-15T03:55:20;100393.78;;;1.47;100.00
79455;BME280;68900;52.134;5.420;2024-01-15T03:57:47;100381.25;;;1.49;100.00
79455;BME280;68900;52.134;5.420;2024-01-15T04:00:17;100375.94;;;1.49;100.00
79455;BME280;68900;52.134;5.420;2024-01-15T04:02:44;100375.06;;;1.48;100.00
79455;BME280;68900;52.134;5.420;2024-01-15T04:05:17;100371.91;;;1.43;100.00
79455;BME280;68900;52.134;5.420;2024-01-15T04:07:46;100364.13;;;1.40;100.00
79455;BME280;68900;52.134;5.420;2024-01-15T04:10:13;100352.88;;;1.37;100.00
79455;BME280;68900;52.134;5.420;2024-01-15T04:12:39;100354.88;;;1.33;100.00
79455;BME280;68900;52.134;5.420;2024-01-15T04:15:06;100357.53;;;1.33;100.00
79455;BME280;68900;52.134;5.420;2024-01-15T04:17:35;100349.03;;;1.28;100.00
79455;BME280;68900;52.134;5.420;2024-01-15T04:20:08;100355.31;;;1.27;100.00
79455;BME280;68900;52.134;5.420;2024-01-15T04:22:35;100353.59;;;1.26;100.00
79455;BME280;68900;52.134;5.420;2024-01-15T04:25:14;100350.31;;;1.22;100.00
79455;BME280;68900;52.134;5.420;2024-01-15T04:27:43;100352.09;;;1.22;100.00
79455;BME280;68900;52.134;5.420;2024-01-15T04:30:12;100339.91;;;1.19;100.00
79455;BME280;68900;52.134;5.420;2024-01-15T04:32:39;100345.31;;;1.18;100.00
79455;BME280;68900;52.134;5.420;2024-01-15T04:35:07;100345.06;;;1.21;100.00
79455;BME280;68900;52.134;5.420;2024-01-15T04:37:34;100343.41;;;1.20;100.00
79455;BME280;68900;52.134;5.420;2024-01-15T04:40:02;100338.19;;;1.18;100.00
79455;BME280;68900;52.134;5.420;2024-01-15T04:42:30;100337.34;;;1.18;100.00
79455;BME280;68900;52.134;5.420;2024-01-15T04:44:57;100331.06;;;1.19;100.00
79455;BME280;68900;52.134;5.420;2024-01-15T04:47:27;100330.31;;;1.17;100.00
79455;BME280;68900;52.134;5.420;2024-01-15T04:49:54;100328.41;;;1.19;100.00
79455;BME280;68900;52.134;5.420;2024-01-15T04:52:21;100323.84;;;1.21;100.00
79455;BME280;68900;52.134;5.420;2024-01-15T04:54:50;100317.66;;;1.20;100.00
79455;BME280;68900;52.134;5.420;2024-01-15T04:57:18;100321.31;;;1.19;100.00
79455;BME280;68900;52.134;5.420;2024-01-15T04:59:45;100331.94;;;1.19;100.00
79455;BME280;68900;52.134;5.420;2024-01-15T05:02:12;100331.94;;;1.19;100.00
79455;BME280;68900;52.134;5.420;2024-01-15T05:18:10;100313.88;;;1.24;100.00
79455;BME280;68900;52.134;5.420;2024-01-15T18:13:16;100730.78;;;1.54;98.42
79455;BME280;68900;52.134;5.420;2024-01-15T18:15:43;100732.44;;;1.57;98.68
79455;BME280;68900;52.134;5.420;2024-01-15T18:18:12;100728.69;;;1.59;98.45
79455;BME280;68900;52.134;5.420;2024-01-15T18:20:39;100730.41;;;1.60;99.00
79455;BME280;68900;52.134;5.420;2024-01-15T18:23:06;100746.28;;;1.62;98.67
79455;BME280;68900;52.134;5.420;2024-01-15T18:25:32;100754.34;;;1.60;98.11
79455;BME280;68900;52.134;5.420;2024-01-15T18:28:00;100755.28;;;1.59;98.20
79455;BME280;68900;52.134;5.420;2024-01-15T18:30:26;100783.66;;;1.59;98.25
79455;BME280;68900;52.134;5.420;2024-01-15T18:32:53;100780.16;;;1.58;97.87
79455;BME280;68900;52.134;5.420;2024-01-15T18:35:33;100795.16;;;1.59;98.25
79455;BME280;68900;52.134;5.420;2024-01-15T18:38:00;100793.44;;;1.58;97.58
79455;BME280;68900;52.134;5.420;2024-01-15T18:40:27;100796.00;;;1.60;98.18
79455;BME280;68900;52.134;5.420;2024-01-15T18:42:57;100804.84;;;1.60;98.28
79455;BME280;68900;52.134;5.420;2024-01-15T18:45:24;100798.59;;;1.61;98.57
79455;BME280;68900;52.134;5.420;2024-01-15T18:47:50;100812.91;;;1.59;98.78
79455;BME280;68900;52.134;5.420;2024-01-15T18:50:17;100815.47;;;1.60;98.48
79455;BME280;68900;52.134;5.420;2024-01-15T18:52:45;100814.53;;;1.61;98.66
79455;BME280;68900;52.134;5.420;2024-01-15T18:55:12;100814.63;;;1.60;98.94
79455;BME280;68900;52.134;5.420;2024-01-15T18:57:40;100804.94;;;1.59;99.64
79455;BME280;68900;52.134;5.420;2024-01-15T19:00:07;100812.03;;;1.58;99.45
79455;BME280;68900;52.134;5.420;2024-01-15T19:02:36;100818.13;;;1.60;99.59
79455;BME280;68900;52.134;5.420;2024-01-15T19:05:03;100821.75;;;1.59;99.81
79455;BME280;68900;52.134;5.420;2024-01-15T19:07:30;100825.16;;;1.61;99.68
79455;BME280;68900;52.134;5.420;2024-01-15T19:09:59;100831.44;;;1.60;100.00
79455;BME280;68900;52.134;5.420;2024-01-15T19:12:25;100826.13;;;1.60;100.00
79455;BME280;68900;52.134;5.420;2024-01-15T19:14:52;100809.31;;;1.60;100.00
79455;BME280;68900;52.134;5.420;2024-01-15T19:17:18;100822.97;;;1.54;100.00
79455;BME280;68900;52.134;5.420;2024-01-15T19:19:51;100824.78;;;1.53;100.00
79455;BME280;68900;52.134;5.420;2024-01-15T19:22:17;100826.47;;;1.54;100.00
79455;BME280;68900;52.134;5.420;2024-01-15T19:24:44;100816.72;;;1.55;100.00
79455;BME280;68900;52.134;5.420;2024-01-15T19:27:11;100822.97;;;1.54;100.00
79455;BME280;68900;52.134;5.420;2024-01-15T19:29:37;100819.44;;;1.53;100.00
79455;BME280;68900;52.134;5.420;2024-01-15T19:32:04;100827.63;;;1.50;100.00
79455;BME280;68900;52.134;5.420;2024-01-15T19:34:34;100822.50;;;1.47;100.00
79455;BME280;68900;52.134;5.420;2024-01-15T19:37:04;100830.66;;;1.44;100.00
79455;BME280;68900;52.134;5.420;2024-01-15T19:39:30;100837.69;;;1.45;100.00
79455;BME280;68900;52.134;5.420;2024-01-15T19:41:59;100833.22;;;1.46;100.00
79455;BME280;68900;52.134;5.420;2024-01-15T19:44:27;100850.03;;;1.46;100.00
79455;BME280;68900;52.134;5.420;2024-01-15T19:46:58;100845.56;;;1.47;100.00
79455;BME280;68900;52.134;5.420;2024-01-15T19:49:27;100848.31;;;1.45;100.00
79455;BME280;68900;52.134;5.420;2024-01-15T19:51:54;100838.53;;;1.46;100.00
79455;BME280;68900;52.134;5.420;2024-01-15T19:54:24;100836.94;;;1.43;100.00
79455;BME280;68900;52.134;5.420;2024-01-15T19:56:50;100841.41;;;1.43;100.00
79455;BME280;68900;52.134;5.420;2024-01-15T19:59:17;100837.88;;;1.42;100.00
79455;BME280;68900;52.134;5.420;2024-01-15T20:01:44;100837.09;;;1.40;100.00
79455;BME280;68900;52.134;5.420;2024-01-15T20:04:20;100851.31;;;1.39;100.00
79455;BME280;68900;52.134;5.420;2024-01-15T20:06:47;100852.97;;;1.42;100.00
79455;BME280;68900;52.134;5.420;2024-01-15T20:09:13;100866.34;;;1.40;100.00
79455;BME280;68900;52.134;5.420;2024-01-15T20:11:40;100862.25;;;1.34;100.00
79455;BME280;68900;52.134;5.420;2024-01-15T20:14:08;100871.94;;;1.36;100.00
79455;BME280;68900;52.134;5.420;2024-01-15T20:16:34;100877.72;;;1.28;100.00
79455;BME280;68900;52.134;5.420;2024-01-15T20:19:03;100882.34;;;1.24;100.00
79455;BME280;68900;52.134;5.420;2024-01-15T20:21:32;100877.13;;;1.23;100.00
79455;BME280;68900;52.134;5.420;2024-01-15T20:24:01;100876.25;;;1.22;100.00
79455;BME280;68900;52.134;5.420;2024-01-15T20:26:30;100877.22;;;1.21;100.00
79455;BME280;68900;52.134;5.420;2024-01-15T20:29:02;100889.56;;;1.22;100.00
79455;BME280;68900;52.134;5.420;2024-01-15T20:31:29;100888.69;;;1.22;100.00
79455;BME280;68900;52.134;5.420;2024-01-15T20:33:55;100884.31;;;1.21;100.00
79455;BME280;68900;52.134;5.420;2024-01-15T20:36:25;100888.78;;;1.20;100.00
79455;BME280;68900;52.134;5.420;2024-01-15T20:38:52;100881.66;;;1.21;100.00
79455;BME280;68900;52.134;5.420;2024-01-15T20:41:29;100885.28;;;1.20;100.00
79455;BME280;68900;52.134;5.420;2024-01-15T20:43:55;100889.75;;;1.19;100.00
79455;BME280;68900;52.134;5.420;2024-01-15T20:46:22;100890.69;;;1.18;100.00
79455;BME280;68900;52.134;5.420;2024-01-15T20:48:49;100892.47;;;1.18;100.00
79455;BME280;68900;52.134;5.420;2024-01-15T20:51:19;100892.47;;;1.18;100.00
79455;BME280;68900;52.134;5.420;2024-01-15T20:53:45;100888.31;;;1.14;100.00
79455;BME280;68900;52.134;5.420;2024-01-15T20:56:13;100900.22;;;1.07;100.00
79455;BME280;68900;52.134;5.420;2024-01-15T20:58:40;100898.09;;;0.98;100.00
79455;BME280;68900;52.134;5.420;2024-01-15T21:01:07;100901.00;;;0.93;100.00
79455;BME280;68900;52.134;5.420;2024-01-15T21:03:34;100909.94;;;0.92;100.00
79455;BME280;68900;52.134;5.420;2024-01-15T21:06:04;100906.44;;;0.92;100.00
79455;BME280;68900;52.134;5.420;2024-01-15T21:08:30;100911.91;;;0.88;100.00
79455;BME280;68900;52.134;5.420;2024-01-15T21:10:57;100914.66;;;0.87;100.00
79455;BME280;68900;52.134;5.420;2024-01-15T21:13:23;100912.09;;;0.85;100.00
79455;BME280;68900;52.134;5.420;2024-01-15T21:15:50;100906.97;;;0.82;100.00
79455;BME280;68900;52.134;5.420;2024-01-15T21:18:16;100908.84;;;0.80;100.00
79455;BME280;68900;52.134;5.420;2024-01-15T21:20:44;100914.75;;;0.85;100.00
79455;BME280;68900;52.134;5.420;2024-01-15T21:23:10;100915.69;;;0.84;100.00
79455;BME280;68900;52.134;5.420;2024-01-15T21:25:37;100926.41;;;0.83;100.00
79455;BME280;68900;52.134;5.420;2024-01-15T21:28:04;100930.00;;;0.82;100.00
79455;BME280;68900;52.134;5.420;2024-01-15T21:30:31;100928.28;;;0.81;100.00
79455;BME280;68900;52.134;5.420;2024-01-15T21:33:02;100932.66;;;0.82;100.00
79455;BME280;68900;52.134;5.420;2024-01-15T21:35:30;100937.84;;;0.83;100.00
79455;BME280;68900;52.134;5.420;2024-01-15T21:38:00;100936.94;;;0.84;100.00
79455;BME280;68900;52.134;5.420;2024-01-15T21:40:27;100940.44;;;0.85;100.00
79455;BME280;68900;52.134;5.420;2024-01-15T21:42:53;100940.63;;;0.82;100.00
79455;BME280;68900;52.134;5.420;2024-01-15T21:45:21;100934.53;;;0.80;100.00
79455;BME280;68900;52.134;5.420;2024-01-15T21:47:47;100937.19;;;0.80;100.00
79455;BME280;68900;52.134;5.420;2024-01-15T21:50:17;100932.91;;;0.77;100.00
79455;BME280;68900;52.134;5.420;2024-01-15T21:52:44;100933.66;;;0.79;100.00
79455;BME280;68900;52.134;5.420;2024-01-15T21:55:10;100931.88;;;0.80;100.00
79455;BME280;68900;52.134;5.420;2024-01-15T21:57:37;100934.53;;;0.80;100.00
79455;BME280;68900;52.134;5.420;2024-01-15T22:00:03;100916.06;;;0.78;100.00
79455;BME280;68900;52.134;5.420;2024-01-15T22:02:34;100928.38;;;0.79;100.00
79455;BME280;68900;52.134;5.420;2024-01-15T22:05:07;100934.63;;;0.78;100.00
79455;BME280;68900;52.134;5.420;2024-01-15T22:07:42;100931.97;;;0.78;100.00
79455;BME280;68900;52.134;5.420;2024-01-15T22:10:09;100937.44;;;0.75;100.00
79455;BME280;68900;52.134;5.420;2024-01-15T22:12:39;100940.97;;;0.76;100.00
79455;BME280;68900;52.134;5.420;2024-01-15T22:15:06;100936.78;;;0.72;100.00
79455;BME280;68900;52.134;5.420;2024-01-15T22:17:34;100941.41;;;0.68;100.00
79455;BME280;68900;52.134;5.420;2024-01-15T22:20:00;100946.78;;;0.67;100.00
79455;BME280;68900;52.134;5.420;2024-01-15T22:22:27;100948.59;;;0.66;100.00
79455;BME280;68900;52.134;5.420;2024-01-15T22:25:07;100956.53;;;0.66;100.00
79455;BME280;68900;52.134;5.420;2024-01-15T22:27:36;100968.81;;;0.69;100.00
79455;BME280;68900;52.134;5.420;2024-01-15T22:30:10;100974.44;;;0.63;100.00
79455;BME280;68900;52.134;5.420;2024-01-15T22:32:36;100984.63;;;0.55;100.00
79455;BME280;68900;52.134;5.420;2024-01-15T22:35:04;100987.28;;;0.55;100.00
79455;BME280;68900;52.134;5.420;2024-01-15T22:37:30;100988.47;;;0.49;100.00
79455;BME280;68900;52.134;5.420;2024-01-15T22:39:58;100983.84;;;0.53;100.00
79455;BME280;68900;52.134;5.420;2024-01-15T22:42:24;100987.97;;;0.58;100.00
79455;BME280;68900;52.134;5.420;2024-01-15T22:44:51;100983.41;;;0.60;100.00
79455;BME280;68900;52.134;5.420;2024-01-15T22:47:18;100993.09;;;0.61;100.00
79455;BME280;68900;52.134;5.420;2024-01-15T22:49:45;100986.06;;;0.60;100.00
79455;BME280;68900;52.134;5.420;2024-01-15T22:52:11;100989.69;;;0.59;100.00
79455;BME280;68900;52.134;5.420;2024-01-15T22:54:39;101003.81;;;0.60;100.00
79455;BME280;68900;52.134;5.420;2024-01-15T22:57:09;101020.50;;;0.62;100.00
79455;BME280;68900;52.134;5.420;2024-01-15T23:00:14;101031.13;;;0.62;100.00
79455;BME280;68900;52.134;5.420;2024-01-15T23:02:50;101028.47;;;0.62;100.00
79455;BME280;68900;52.134;5.420;2024-01-15T23:05:22;101021.53;;;0.59;100.00
79455;BME280;68900;52.134;5.420;2024-01-15T23:07:49;101011.06;;;0.56;100.00
79455;BME280;68900;52.134;5.420;2024-01-15T23:10:17;101028.53;;;0.60;100.00
79455;BME280;68900;52.134;5.420;2024-01-15T23:12:43;101025.97;;;0.59;100.00
79455;BME280;68900;52.134;5.420;2024-01-15T23:15:10;101027.72;;;0.60;100.00
79455;BME280;68900;52.134;5.420;2024-01-15T23:17:37;101024.00;;;0.62;100.00
79455;BME280;68900;52.134;5.420;2024-01-15T23:20:04;101022.28;;;0.61;100.00
79455;BME280;68900;52.134;5.420;2024-01-15T23:22:31;101030.38;;;0.60;100.00
79455;BME280;68900;52.134;5.420;2024-01-15T23:24:58;101019.75;;;0.60;100.00
79455;BME280;68900;52.134;5.420;2024-01-15T23:27:24;101015.25;;;0.60;100.00
79455;BME280;68900;52.134;5.420;2024-01-15T23:29:51;101023.22;;;0.60;100.00
79455;BME280;68900;52.134;5.420;2024-01-15T23:32:17;101025.06;;;0.60;100.00
79455;BME280;68900;52.134;5.420;2024-01-15T23:34:45;101039.16;;;0.60;100.00
79455;BME280;68900;52.134;5.420;2024-01-15T23:37:11;101033.16;;;0.57;100.00
79455;BME280;68900;52.134;5.420;2024-01-15T23:39:38;101033.16;;;0.57;100.00
79455;BME280;68900;52.134;5.420;2024-01-15T23:42:05;101041.22;;;0.55;100.00
79455;BME280;68900;52.134;5.420;2024-01-15T23:44:36;101036.06;;;0.52;100.00
79455;BME280;68900;52.134;5.420;2024-01-15T23:47:06;101036.06;;;0.52;100.00
79455;BME280;68900;52.134;5.420;2024-01-15T23:49:35;101037.09;;;0.50;100.00
79455;BME280;68900;52.134;5.420;2024-01-15T23:52:03;101038.09;;;0.47;100.00
79455;BME280;68900;52.134;5.420;2024-01-15T23:54:30;101045.13;;;0.48;100.00
79455;BME280;68900;52.134;5.420;2024-01-15T23:56:58;101053.09;;;0.48;100.00
79455;BME280;68900;52.134;5.420;2024-01-15T23:59:28;101039.81;;;0.48;100.00
